Time;durP1;ratioP1;P1;durP2;ratioP2;P2;SDS_P1;SDS_P2;PMS_P1;PMS_P2;Temp;Humidity;BMP_temperature;BMP_pressure;BME280_temperature;BME280_humidity;BME280_pressure;Samples;Min_cycle;Max_cycle;Signal;HPM_P1;HPM_P2
2021/04/24 00:01:37;;;;;;;;;;;15.30;92.70;;;;;;5013949;28;19913;-69
2021/04/24 00:04:06;;;;;;;;;;;15.40;91.90;;;;;;5013880;28;19917;-69
2021/04/24 00:06:33;;;;;;;;;;;15.40;92.10;;;;;;5013768;28;19921;-70
2021/04/24 00:09:00;;;;;;;;;;;15.50;92.10;;;;;;5013878;28;19921;-68
2021/04/24 00:11:27;;;;;;;;;;;15.60;92.00;;;;;;5014416;28;20241;-70
2021/04/24 00:13:54;;;;;;;;;;;15.70;91.70;;;;;;5014333;28;19914;-70
2021/04/24 00:16:21;;;;;;;;;;;15.80;91.20;;;;;;5014957;28;19945;-67
2021/04/24 00:18:48;;;;;;;;;;;15.90;90.80;;;;;;5013737;28;20325;-70
2021/04/24 00:21:15;;;;;;;;;;;16.00;90.40;;;;;;5014040;28;19909;-69
2021/04/24 00:23:45;;;;;;;;;;;16.00;90.60;;;;;;5013942;28;19979;-70
2021/04/24 00:26:12;;;;;;;;;;;16.10;90.50;;;;;;4996753;28;19913;-69
2021/04/24 00:28:38;;;;;;;;;;;16.20;90.30;;;;;;5013800;28;19910;-69
2021/04/24 00:31:06;;;;;;;;;;;16.30;90.10;;;;;;5014077;28;19913;-68
2021/04/24 00:33:33;;;;;;;;;;;16.50;90.10;;;;;;5014270;28;19924;-69
2021/04/24 00:36:00;;;;;;;;;;;16.70;89.00;;;;;;5014384;28;20356;-70
2021/04/24 00:38:26;;;;;;;;;;;16.80;89.50;;;;;;5016918;28;19917;-68
2021/04/24 00:40:54;;;;;;;;;;;16.80;88.20;;;;;;5018939;28;19933;-68
2021/04/24 00:43:21;;;;;;;;;;;16.90;87.30;;;;;;5020160;28;19920;-70
2021/04/24 00:45:48;;;;;;;;;;;17.00;87.50;;;;;;5017640;28;19909;-71
2021/04/24 00:48:14;;;;;;;;;;;17.00;86.60;;;;;;5013721;28;19920;-71
2021/04/24 00:50:42;;;;;;;;;;;17.00;87.00;;;;;;5013573;28;20357;-70
2021/04/24 00:53:09;;;;;;;;;;;16.90;87.00;;;;;;4996062;28;20313;-69
2021/04/24 00:55:39;;;;;;;;;;;16.90;87.70;;;;;;5013632;28;19919;-69
2021/04/24 00:58:08;;;;;;;;;;;16.90;86.70;;;;;;5013763;28;20364;-69
2021/04/24 01:00:34;;;;;;;;;;;17.00;86.50;;;;;;5013696;28;19914;-71
2021/04/24 01:03:02;;;;;;;;;;;17.10;86.80;;;;;;5013341;28;19920;-69
2021/04/24 01:05:32;;;;;;;;;;;17.10;86.60;;;;;;5013543;28;19909;-68
2021/04/24 01:07:59;;;;;;;;;;;17.20;85.90;;;;;;5013592;28;19920;-70
2021/04/24 01:10:28;;;;;;;;;;;17.40;85.80;;;;;;5013902;28;19924;-68
2021/04/24 01:12:55;;;;;;;;;;;17.60;85.30;;;;;;5013498;28;19909;-68
2021/04/24 01:15:25;;;;;;;;;;;17.70;84.50;;;;;;5013550;28;20383;-70
2021/04/24 01:17:52;;;;;;;;;;;17.80;83.90;;;;;;5013635;28;19921;-71
2021/04/24 01:20:20;;;;;;;;;;;18.00;83.50;;;;;;5013978;28;19909;-69
2021/04/24 01:22:47;;;;;;;;;;;18.00;83.50;;;;;;4995970;28;19913;-69
2021/04/24 01:25:15;;;;;;;;;;;18.10;83.80;;;;;;5013593;28;19940;-69
2021/04/24 01:27:45;;;;;;;;;;;18.20;83.90;;;;;;5013258;28;19909;-70
2021/04/24 01:30:12;;;;;;;;;;;18.30;82.70;;;;;;4995143;28;19917;-70
2021/04/24 01:32:39;;;;;;;;;;;18.30;82.90;;;;;;5013356;28;20000;-69
2021/04/24 01:35:07;;;;;;;;;;;18.20;82.70;;;;;;5013181;28;19921;-69
2021/04/24 01:37:34;;;;;;;;;;;18.20;83.30;;;;;;5013234;28;19914;-69
2021/04/24 01:40:00;;;;;;;;;;;18.20;83.70;;;;;;5012970;28;20261;-70
2021/04/24 01:42:30;;;;;;;;;;;18.10;83.80;;;;;;5013386;28;19937;-70
2021/04/24 01:44:56;;;;;;;;;;;18.10;83.00;;;;;;5013345;28;19937;-70
2021/04/24 01:47:23;;;;;;;;;;;18.10;83.90;;;;;;5013133;28;19914;-69
2021/04/24 01:49:50;;;;;;;;;;;18.10;82.70;;;;;;5013023;28;19971;-70
2021/04/24 01:52:17;;;;;;;;;;;18.10;84.00;;;;;;4997115;28;19913;-69
2021/04/24 01:54:43;;;;;;;;;;;18.10;83.70;;;;;;5016685;28;19920;-69
2021/04/24 01:57:10;;;;;;;;;;;18.20;83.40;;;;;;5016832;28;19958;-68
2021/04/24 01:59:37;;;;;;;;;;;18.10;83.30;;;;;;5016989;28;20296;-68
2021/04/24 02:02:04;;;;;;;;;;;18.10;83.80;;;;;;5016676;28;19964;-68
2021/04/24 02:04:30;;;;;;;;;;;18.20;83.30;;;;;;5016584;28;20364;-68
2021/04/24 02:06:57;;;;;;;;;;;18.20;83.20;;;;;;5016709;28;19917;-69
2021/04/24 02:09:24;;;;;;;;;;;18.20;83.90;;;;;;5017320;28;19971;-69
2021/04/24 02:12:02;;;;;;;;;;;18.20;83.50;;;;;;5018578;28;19910;-67
2021/04/24 02:14:29;;;;;;;;;;;18.20;83.90;;;;;;5001907;28;19909;-68
2021/04/24 02:16:56;;;;;;;;;;;18.20;83.90;;;;;;5017021;28;19913;-67
2021/04/24 02:19:23;;;;;;;;;;;18.20;83.50;;;;;;5016590;28;19920;-67
2021/04/24 02:21:51;;;;;;;;;;;18.20;83.60;;;;;;5016501;28;19917;-67
2021/04/24 02:24:18;;;;;;;;;;;18.20;84.10;;;;;;5016675;28;19936;-66
2021/04/24 02:26:45;;;;;;;;;;;18.20;84.40;;;;;;5016410;28;19956;-68
2021/04/24 02:29:12;;;;;;;;;;;18.30;84.20;;;;;;5016705;28;20008;-68
2021/04/24 02:31:38;;;;;;;;;;;18.40;83.50;;;;;;5001680;28;20253;-68
2021/04/24 02:34:05;;;;;;;;;;;18.40;83.50;;;;;;5000734;28;19932;-67
2021/04/24 02:36:32;;;;;;;;;;;18.50;84.30;;;;;;5016421;28;20253;-68
2021/04/24 02:38:58;;;;;;;;;;;18.40;85.00;;;;;;5014756;28;20402;-69
2021/04/24 02:41:25;;;;;;;;;;;18.60;84.10;;;;;;5015168;28;19926;-69
2021/04/24 02:43:52;;;;;;;;;;;18.50;84.40;;;;;;5016115;28;20387;-68
2021/04/24 02:46:18;;;;;;;;;;;18.70;83.80;;;;;;5015085;28;20284;-69
2021/04/24 02:48:45;;;;;;;;;;;18.70;83.70;;;;;;5015477;28;19913;-68
2021/04/24 02:51:12;;;;;;;;;;;18.70;83.80;;;;;;5015249;28;19920;-68
2021/04/24 02:53:38;;;;;;;;;;;18.70;84.20;;;;;;5015881;28;19910;-67
2021/04/24 02:56:05;;;;;;;;;;;18.80;83.80;;;;;;5016066;28;19910;-68
2021/04/24 02:58:32;;;;;;;;;;;18.90;83.30;;;;;;5015902;28;19972;-68
2021/04/24 03:00:58;;;;;;;;;;;18.80;84.20;;;;;;5015702;28;19913;-70
2021/04/24 03:03:25;;;;;;;;;;;18.80;83.50;;;;;;5015665;28;20426;-69
2021/04/24 03:05:54;;;;;;;;;;;18.90;84.10;;;;;;5015887;28;20355;-70
2021/04/24 03:08:21;;;;;;;;;;;18.80;83.40;;;;;;5015882;28;19914;-69
2021/04/24 03:10:48;;;;;;;;;;;18.80;83.80;;;;;;4997645;28;19926;-68
2021/04/24 03:13:15;;;;;;;;;;;18.80;84.30;;;;;;5015497;28;20332;-67
2021/04/24 03:15:41;;;;;;;;;;;18.70;85.30;;;;;;5015615;28;19917;-68
2021/04/24 03:18:08;;;;;;;;;;;18.60;84.70;;;;;;5015581;28;20356;-69
2021/04/24 03:20:35;;;;;;;;;;;18.60;85.10;;;;;;5015483;28;20518;-70
2021/04/24 03:23:04;;;;;;;;;;;18.50;85.70;;;;;;5015173;28;20311;-71
2021/04/24 03:25:30;;;;;;;;;;;19.00;87.90;;;;;;5015408;28;19916;-70
2021/04/24 03:27:57;;;;;;;;;;;19.20;86.10;;;;;;4997743;28;19910;-70
2021/04/24 03:30:24;;;;;;;;;;;19.20;84.40;;;;;;5015429;28;19917;-70
2021/04/24 03:32:53;;;;;;;;;;;19.20;84.30;;;;;;5014987;28;19914;-70
2021/04/24 03:35:20;;;;;;;;;;;19.10;84.70;;;;;;5015384;28;19948;-70
2021/04/24 03:37:47;;;;;;;;;;;19.00;86.10;;;;;;5015197;28;19913;-70
2021/04/24 03:40:13;;;;;;;;;;;19.10;85.60;;;;;;5014018;28;19925;-70
2021/04/24 03:42:40;;;;;;;;;;;19.00;86.50;;;;;;5015194;28;19920;-69
2021/04/24 03:45:17;;;;;;;;;;;19.20;85.60;;;;;;5014791;28;19909;-70
2021/04/24 03:47:48;;;;;;;;;;;19.10;85.70;;;;;;4997214;28;19964;-70
2021/04/24 03:50:15;;;;;;;;;;;19.10;84.80;;;;;;5014706;28;20336;-70
2021/04/24 03:52:42;;;;;;;;;;;19.10;85.80;;;;;;5014701;28;19964;-70
2021/04/24 03:55:09;;;;;;;;;;;19.10;85.80;;;;;;5014731;28;20008;-68
2021/04/24 03:57:36;;;;;;;;;;;19.10;85.30;;;;;;5015557;28;19910;-69
2021/04/24 04:00:05;;;;;;;;;;;19.10;85.80;;;;;;5016947;28;19914;-68
2021/04/24 04:02:43;;;;;;;;;;;19.10;85.40;;;;;;5017831;28;19909;-68
2021/04/24 04:05:10;;;;;;;;;;;19.10;85.70;;;;;;5014561;28;19910;-69
2021/04/24 04:07:37;;;;;;;;;;;19.10;85.90;;;;;;5014647;28;19910;-69
2021/04/24 04:10:04;;;;;;;;;;;19.10;85.60;;;;;;5014521;28;19918;-69
2021/04/24 04:12:30;;;;;;;;;;;19.00;85.30;;;;;;5013698;28;20285;-69
2021/04/24 04:14:57;;;;;;;;;;;19.00;86.20;;;;;;5013906;28;20354;-68
2021/04/24 04:17:24;;;;;;;;;;;19.10;86.80;;;;;;5014330;28;20364;-67
2021/04/24 04:19:52;;;;;;;;;;;19.30;86.10;;;;;;5014238;28;19933;-68
2021/04/24 04:22:18;;;;;;;;;;;19.30;86.30;;;;;;5014354;28;19909;-70
2021/04/24 04:24:45;;;;;;;;;;;19.20;86.00;;;;;;5014220;28;19914;-72
2021/04/24 04:27:12;;;;;;;;;;;19.20;85.90;;;;;;5013380;28;19956;-72
2021/04/24 04:30:12;;;;;;;;;;;19.20;86.70;;;;;;5014434;28;19953;-71
2021/04/24 04:32:39;;;;;;;;;;;19.10;86.20;;;;;;5005592;28;19910;-71
2021/04/24 04:35:06;;;;;;;;;;;19.20;86.30;;;;;;5008699;28;20037;-71
2021/04/24 04:37:33;;;;;;;;;;;19.20;86.60;;;;;;5012027;28;20555;-71
2021/04/24 04:40:00;;;;;;;;;;;19.10;87.10;;;;;;5011839;28;20012;-70
2021/04/24 04:42:27;;;;;;;;;;;19.00;87.20;;;;;;5011870;28;19989;-70
2021/04/24 04:44:54;;;;;;;;;;;19.00;88.80;;;;;;5010586;28;19921;-70
2021/04/24 04:47:20;;;;;;;;;;;19.00;88.50;;;;;;5011148;28;19915;-72
2021/04/24 04:49:49;;;;;;;;;;;19.00;89.90;;;;;;5011681;28;19945;-72
2021/04/24 04:52:18;;;;;;;;;;;19.00;89.70;;;;;;5009494;28;20020;-71
2021/04/24 04:54:45;;;;;;;;;;;19.00;90.10;;;;;;5011788;28;20350;-72
2021/04/24 04:57:13;;;;;;;;;;;18.90;90.50;;;;;;5011680;28;19985;-68
2021/04/24 04:59:40;;;;;;;;;;;18.90;90.80;;;;;;5011866;28;19913;-69
2021/04/24 05:02:06;;;;;;;;;;;18.90;91.00;;;;;;5010793;28;20360;-68
2021/04/24 05:04:33;;;;;;;;;;;18.90;91.30;;;;;;5011508;28;19964;-68
2021/04/24 05:07:01;;;;;;;;;;;18.90;91.40;;;;;;5011485;28;19959;-68
2021/04/24 05:09:30;;;;;;;;;;;18.90;91.60;;;;;;5011544;28;20356;-69
2021/04/24 05:11:57;;;;;;;;;;;18.90;91.60;;;;;;5011775;28;19916;-68
2021/04/24 05:14:25;;;;;;;;;;;18.90;91.70;;;;;;5011251;28;19944;-70
2021/04/24 05:16:52;;;;;;;;;;;18.90;91.60;;;;;;5011188;28;19940;-70
2021/04/24 05:19:19;;;;;;;;;;;18.80;91.70;;;;;;5010796;28;19952;-69
2021/04/24 05:21:45;;;;;;;;;;;18.80;92.00;;;;;;5011654;28;19910;-69
2021/04/24 05:24:15;;;;;;;;;;;18.80;92.10;;;;;;5011289;28;19909;-68
2021/04/24 05:26:41;;;;;;;;;;;18.80;91.80;;;;;;5010367;28;19914;-68
2021/04/24 05:29:08;;;;;;;;;;;18.90;92.10;;;;;;5014276;28;19996;-69
2021/04/24 05:31:35;;;;;;;;;;;18.80;92.40;;;;;;5016592;28;19913;-69
2021/04/24 05:34:01;;;;;;;;;;;18.90;92.40;;;;;;4995803;28;20411;-69
2021/04/24 05:36:28;;;;;;;;;;;18.80;92.10;;;;;;5011093;28;19920;-70
2021/04/24 05:38:55;;;;;;;;;;;18.90;92.40;;;;;;5011145;28;19917;-70
2021/04/24 05:41:22;;;;;;;;;;;18.90;92.60;;;;;;5010826;28;19929;-69
2021/04/24 05:43:50;;;;;;;;;;;18.80;93.00;;;;;;5011214;28;19909;-70
2021/04/24 05:46:17;;;;;;;;;;;18.70;93.10;;;;;;5011318;28;20288;-69
2021/04/24 05:48:44;;;;;;;;;;;18.80;93.00;;;;;;5010683;28;20012;-69
2021/04/24 05:51:11;;;;;;;;;;;18.80;92.70;;;;;;5011045;28;19932;-69
2021/04/24 05:53:39;;;;;;;;;;;18.70;93.20;;;;;;5010897;28;19914;-69
2021/04/24 05:56:06;;;;;;;;;;;18.70;93.10;;;;;;5010945;28;19910;-69
2021/04/24 05:58:32;;;;;;;;;;;18.70;93.20;;;;;;5011201;28;19916;-70
2021/04/24 06:00:59;;;;;;;;;;;18.60;93.30;;;;;;5010927;28;20364;-68
2021/04/24 06:03:26;;;;;;;;;;;18.60;93.30;;;;;;5010489;28;20428;-70
2021/04/24 06:05:52;;;;;;;;;;;18.70;93.40;;;;;;5010454;28;19916;-68
2021/04/24 06:08:19;;;;;;;;;;;18.80;93.30;;;;;;5011022;28;20356;-70
2021/04/24 06:10:46;;;;;;;;;;;18.70;93.40;;;;;;5010667;28;19918;-67
2021/04/24 06:13:14;;;;;;;;;;;18.70;93.30;;;;;;5010932;28;19916;-70
2021/04/24 06:15:40;;;;;;;;;;;18.60;93.10;;;;;;5009147;28;19913;-68
2021/04/24 06:18:07;;;;;;;;;;;18.50;93.60;;;;;;5010359;28;20060;-68
2021/04/24 06:20:34;;;;;;;;;;;18.50;93.60;;;;;;5010671;28;20000;-68
2021/04/24 06:23:00;;;;;;;;;;;18.50;93.60;;;;;;5010642;28;19914;-68
2021/04/24 06:25:27;;;;;;;;;;;18.40;94.10;;;;;;5010810;28;19914;-69
2021/04/24 06:27:54;;;;;;;;;;;18.50;94.10;;;;;;5010890;28;19917;-70
2021/04/24 06:30:21;;;;;;;;;;;18.40;94.30;;;;;;5010464;28;19925;-70
2021/04/24 06:32:49;;;;;;;;;;;18.40;94.30;;;;;;5009445;28;20003;-69
2021/04/24 06:35:20;;;;;;;;;;;18.40;94.60;;;;;;5010527;28;19909;-69
2021/04/24 06:37:47;;;;;;;;;;;18.30;94.70;;;;;;5011404;28;19910;-67
2021/04/24 06:40:15;;;;;;;;;;;18.20;94.90;;;;;;5013931;28;19929;-68
2021/04/24 06:42:41;;;;;;;;;;;18.20;95.30;;;;;;5014236;28;19921;-69
2021/04/24 06:45:10;;;;;;;;;;;18.20;95.20;;;;;;5014277;28;19917;-68
2021/04/24 06:47:37;;;;;;;;;;;18.30;95.50;;;;;;5013515;28;19909;-68
2021/04/24 06:50:06;;;;;;;;;;;18.20;95.60;;;;;;5014074;28;19918;-68
2021/04/24 06:52:33;;;;;;;;;;;18.10;95.90;;;;;;5013903;28;19917;-68
2021/04/24 06:55:00;;;;;;;;;;;18.00;96.20;;;;;;5013723;28;20343;-68
2021/04/24 06:57:27;;;;;;;;;;;18.00;96.50;;;;;;5015410;28;19952;-69
2021/04/24 06:59:54;;;;;;;;;;;18.00;96.40;;;;;;5015215;28;19964;-68
2021/04/24 07:02:21;;;;;;;;;;;18.10;96.60;;;;;;5017104;28;20032;-68
2021/04/24 07:04:49;;;;;;;;;;;18.10;96.60;;;;;;5014487;28;19936;-68
2021/04/24 07:07:19;;;;;;;;;;;18.00;96.90;;;;;;5013772;28;19914;-67
2021/04/24 07:09:46;;;;;;;;;;;18.00;97.10;;;;;;5013981;28;20359;-71
2021/04/24 07:12:12;;;;;;;;;;;17.90;97.40;;;;;;5013422;28;19914;-69
2021/04/24 07:14:39;;;;;;;;;;;18.00;97.70;;;;;;5013548;28;19968;-69
2021/04/24 07:17:06;;;;;;;;;;;17.90;97.90;;;;;;5012565;28;19910;-68
2021/04/24 07:19:32;;;;;;;;;;;17.80;98.20;;;;;;5013325;28;20360;-69
2021/04/24 07:21:59;;;;;;;;;;;17.80;98.30;;;;;;5013461;28;20384;-69
2021/04/24 07:24:26;;;;;;;;;;;17.70;98.70;;;;;;5012961;28;20004;-69
2021/04/24 07:26:54;;;;;;;;;;;17.60;98.80;;;;;;5013214;28;19909;-70
2021/04/24 07:29:20;;;;;;;;;;;17.70;99.10;;;;;;5013418;28;20043;-69
2021/04/24 07:31:47;;;;;;;;;;;17.60;99.20;;;;;;5012314;28;19909;-69
2021/04/24 07:34:14;;;;;;;;;;;17.50;99.50;;;;;;5013187;28;19980;-69
2021/04/24 07:36:40;;;;;;;;;;;17.60;99.70;;;;;;5013153;28;19960;-68
2021/04/24 07:39:07;;;;;;;;;;;17.60;99.90;;;;;;5012518;28;19937;-67
2021/04/24 07:41:34;;;;;;;;;;;17.50;99.90;;;;;;5013156;28;20370;-70
2021/04/24 07:44:04;;;;;;;;;;;17.50;99.90;;;;;;5013122;28;19924;-69
2021/04/24 07:46:31;;;;;;;;;;;17.50;99.90;;;;;;5012428;28;19992;-69
2021/04/24 07:48:57;;;;;;;;;;;17.40;99.90;;;;;;5012021;28;20295;-70
2021/04/24 07:51:24;;;;;;;;;;;17.40;99.90;;;;;;5012339;28;19949;-69
2021/04/24 07:53:51;;;;;;;;;;;17.40;99.90;;;;;;5012789;28;19917;-69
2021/04/24 07:56:18;;;;;;;;;;;17.40;99.90;;;;;;5012832;28;19909;-68
2021/04/24 07:58:44;;;;;;;;;;;17.40;99.90;;;;;;5012740;28;19921;-68
2021/04/24 08:01:11;;;;;;;;;;;17.30;99.90;;;;;;5011873;28;19917;-68
2021/04/24 08:03:38;;;;;;;;;;;17.30;99.90;;;;;;5012476;28;19913;-67
2021/04/24 08:06:06;;;;;;;;;;;17.30;99.90;;;;;;5012654;28;20012;-68
2021/04/24 08:08:32;;;;;;;;;;;17.40;99.90;;;;;;5012975;28;19957;-69
2021/04/24 08:10:59;;;;;;;;;;;17.30;99.90;;;;;;5012575;28;20394;-70
2021/04/24 08:13:26;;;;;;;;;;;17.30;99.90;;;;;;5013062;28;19920;-69
2021/04/24 08:15:53;;;;;;;;;;;17.30;99.90;;;;;;5011720;28;19917;-70
2021/04/24 08:18:19;;;;;;;;;;;17.30;99.90;;;;;;5011965;28;20329;-68
2021/04/24 08:20:46;;;;;;;;;;;17.20;99.90;;;;;;5012045;28;20306;-69
2021/04/24 08:23:13;;;;;;;;;;;17.20;99.90;;;;;;5012259;28;19913;-69
2021/04/24 08:25:39;;;;;;;;;;;17.10;99.90;;;;;;5012332;28;19916;-68
2021/04/24 08:28:06;;;;;;;;;;;17.20;99.90;;;;;;5013071;28;19940;-70
2021/04/24 08:30:33;;;;;;;;;;;17.20;99.90;;;;;;5013789;28;19921;-69
2021/04/24 08:33:00;;;;;;;;;;;17.20;99.90;;;;;;5016532;28;19942;-70
2021/04/24 08:35:26;;;;;;;;;;;17.20;99.90;;;;;;5012919;28;19949;-67
2021/04/24 08:37:53;;;;;;;;;;;17.10;99.90;;;;;;5012560;28;19917;-67
2021/04/24 08:40:23;;;;;;;;;;;17.20;99.90;;;;;;5011855;28;19929;-68
2021/04/24 08:42:52;;;;;;;;;;;17.10;99.90;;;;;;5010128;28;20370;-68
2021/04/24 08:45:23;;;;;;;;;;;17.10;99.90;;;;;;5011293;28;19916;-67
2021/04/24 08:47:54;;;;;;;;;;;17.10;99.90;;;;;;5011765;28;20007;-67
2021/04/24 08:50:30;;;;;;;;;;;17.00;99.90;;;;;;5011713;28;19921;-68
2021/04/24 08:52:58;;;;;;;;;;;17.00;99.90;;;;;;5011436;28;19920;-68
2021/04/24 08:55:26;;;;;;;;;;;17.00;99.90;;;;;;5011531;28;19917;-70
2021/04/24 08:57:53;;;;;;;;;;;16.90;99.90;;;;;;5011545;28;20000;-68
2021/04/24 09:00:22;;;;;;;;;;;16.90;99.90;;;;;;5011483;28;19968;-67
2021/04/24 09:02:50;;;;;;;;;;;16.90;99.90;;;;;;5009791;28;19999;-68
2021/04/24 09:05:18;;;;;;;;;;;16.90;99.90;;;;;;5011626;28;19952;-67
2021/04/24 09:07:44;;;;;;;;;;;16.90;99.90;;;;;;5011618;28;19980;-67
2021/04/24 09:10:15;;;;;;;;;;;16.90;99.90;;;;;;5011094;28;19921;-69
2021/04/24 09:12:46;;;;;;;;;;;16.90;99.90;;;;;;5011718;28;19918;-67
2021/04/24 09:15:15;;;;;;;;;;;16.90;99.90;;;;;;5011464;28;20008;-69
2021/04/24 09:17:52;;;;;;;;;;;16.80;99.90;;;;;;5010925;28;19914;-67
2021/04/24 09:20:20;;;;;;;;;;;16.80;99.90;;;;;;4998754;28;19917;-68
2021/04/24 09:22:57;;;;;;;;;;;16.80;99.90;;;;;;5010533;28;19914;-70
2021/04/24 09:25:53;;;;;;;;;;;16.80;99.90;;;;;;5011032;28;20383;-70
2021/04/24 09:28:26;;;;;;;;;;;16.70;99.90;;;;;;4997543;28;19913;-70
2021/04/24 09:30:54;;;;;;;;;;;16.70;99.90;;;;;;5010050;28;19925;-70
2021/04/24 09:33:22;;;;;;;;;;;16.70;99.90;;;;;;4992641;28;19917;-69
2021/04/24 09:35:55;;;;;;;;;;;16.70;99.90;;;;;;4992295;28;20273;-71
2021/04/24 09:38:33;;;;;;;;;;;16.70;99.90;;;;;;5010534;28;20418;-71
2021/04/24 09:41:01;;;;;;;;;;;16.70;99.90;;;;;;5010215;28;20281;-70
2021/04/24 09:43:27;;;;;;;;;;;16.70;99.90;;;;;;5010191;28;19914;-70
2021/04/24 09:45:54;;;;;;;;;;;16.70;99.90;;;;;;5009862;28;19936;-69
2021/04/24 09:48:21;;;;;;;;;;;16.70;99.90;;;;;;5010498;28;19909;-70
2021/04/24 09:50:49;;;;;;;;;;;16.70;99.90;;;;;;5010013;28;20276;-69
2021/04/24 09:53:19;;;;;;;;;;;16.60;99.90;;;;;;5010397;28;19916;-70
2021/04/24 09:55:47;;;;;;;;;;;16.60;99.90;;;;;;5010462;28;20261;-70
2021/04/24 09:58:32;;;;;;;;;;;16.60;99.90;;;;;;5010987;28;19914;-70
2021/04/24 10:00:59;;;;;;;;;;;16.60;99.90;;;;;;5010792;28;19909;-70
2021/04/24 10:03:35;;;;;;;;;;;16.60;99.90;;;;;;5011497;28;20256;-71
2021/04/24 10:06:22;;;;;;;;;;;16.60;99.90;;;;;;5010970;28;19916;-69
2021/04/24 10:09:07;;;;;;;;;;;16.60;99.90;;;;;;5010113;28;19909;-69
2021/04/24 10:11:34;;;;;;;;;;;16.60;99.90;;;;;;5008912;28;20016;-70
2021/04/24 10:14:01;;;;;;;;;;;16.50;99.90;;;;;;5013001;28;19945;-69
2021/04/24 10:16:42;;;;;;;;;;;16.50;99.90;;;;;;5013953;28;19910;-70
2021/04/24 10:19:18;;;;;;;;;;;16.50;99.90;;;;;;5014246;28;20419;-69
2021/04/24 10:21:45;;;;;;;;;;;16.50;99.90;;;;;;5014053;28;19945;-69
2021/04/24 10:24:12;;;;;;;;;;;16.40;99.90;;;;;;5013708;28;20356;-69
2021/04/24 10:26:40;;;;;;;;;;;16.50;99.90;;;;;;5013857;28;19936;-71
2021/04/24 10:29:07;;;;;;;;;;;16.50;99.90;;;;;;5013437;28;19910;-68
2021/04/24 10:31:35;;;;;;;;;;;16.50;99.90;;;;;;5013713;28;19921;-69
2021/04/24 10:34:04;;;;;;;;;;;16.50;99.90;;;;;;4996106;28;19913;-69
2021/04/24 10:36:32;;;;;;;;;;;16.50;99.90;;;;;;5013744;28;19916;-69
2021/04/24 10:38:59;;;;;;;;;;;16.50;99.90;;;;;;5013080;28;19960;-69
2021/04/24 10:41:27;;;;;;;;;;;16.40;99.90;;;;;;5013366;28;19926;-70
2021/04/24 10:44:14;;;;;;;;;;;16.40;99.90;;;;;;5013199;28;20360;-70
2021/04/24 10:46:50;;;;;;;;;;;16.40;99.90;;;;;;5013558;28;19937;-69
2021/04/24 10:49:29;;;;;;;;;;;16.40;99.90;;;;;;5013503;28;20011;-67
2021/04/24 10:52:14;;;;;;;;;;;16.30;99.90;;;;;;5013149;28;19921;-69
2021/04/24 10:54:40;;;;;;;;;;;16.30;99.90;;;;;;5013748;28;19910;-68
2021/04/24 10:57:25;;;;;;;;;;;16.30;99.90;;;;;;5012896;28;19933;-69
2021/04/24 10:59:56;;;;;;;;;;;16.20;99.90;;;;;;5013080;28;19944;-68
2021/04/24 11:02:37;;;;;;;;;;;16.20;99.90;;;;;;5011913;28;19948;-68
2021/04/24 11:05:23;;;;;;;;;;;16.10;99.90;;;;;;5012397;28;19909;-68
2021/04/24 11:08:19;;;;;;;;;;;16.10;99.90;;;;;;5013265;28;19945;-70
2021/04/24 11:10:48;;;;;;;;;;;16.00;99.90;;;;;;5012637;28;20372;-70
2021/04/24 11:13:18;;;;;;;;;;;15.90;99.90;;;;;;5012812;28;20604;-70
2021/04/24 11:15:45;;;;;;;;;;;15.90;99.90;;;;;;5012927;28;19940;-70
2021/04/24 11:18:13;;;;;;;;;;;15.90;99.90;;;;;;5012391;28;19921;-69
2021/04/24 11:20:48;;;;;;;;;;;16.00;99.90;;;;;;5012922;28;19996;-69
2021/04/24 11:23:30;;;;;;;;;;;16.10;99.90;;;;;;5012682;28;19909;-69
2021/04/24 11:26:01;;;;;;;;;;;16.10;99.90;;;;;;5013680;28;19975;-67
2021/04/24 11:28:28;;;;;;;;;;;16.10;99.90;;;;;;5016147;28;20287;-68
2021/04/24 11:30:57;;;;;;;;;;;16.10;99.90;;;;;;5017919;28;19917;-67
2021/04/24 11:33:33;;;;;;;;;;;16.10;99.90;;;;;;5016453;28;20401;-67
2021/04/24 11:36:29;;;;;;;;;;;16.00;99.90;;;;;;5012378;28;19918;-67
2021/04/24 11:38:56;;;;;;;;;;;16.00;99.90;;;;;;4999713;28;19910;-68
2021/04/24 11:41:38;;;;;;;;;;;16.00;99.90;;;;;;5012526;28;19991;-70
2021/04/24 11:44:26;;;;;;;;;;;16.00;99.90;;;;;;5012590;28;19910;-69
2021/04/24 11:46:52;;;;;;;;;;;16.00;99.90;;;;;;5012858;28;19909;-68
2021/04/24 11:49:20;;;;;;;;;;;16.00;99.90;;;;;;5012970;28;19921;-70
2021/04/24 11:51:51;;;;;;;;;;;16.00;99.90;;;;;;5013129;28;19914;-70
2021/04/24 11:54:25;;;;;;;;;;;15.90;99.90;;;;;;5012986;28;19914;-69
2021/04/24 11:56:53;;;;;;;;;;;15.90;99.90;;;;;;5012312;28;19944;-69
2021/04/24 11:59:27;;;;;;;;;;;15.90;99.90;;;;;;5012728;28;20360;-70
2021/04/24 12:01:59;;;;;;;;;;;15.90;99.90;;;;;;5012654;28;19913;-70
2021/04/24 12:04:29;;;;;;;;;;;15.80;99.90;;;;;;5012664;28;19949;-70
2021/04/24 12:07:00;;;;;;;;;;;15.80;99.90;;;;;;5012576;28;20374;-70
2021/04/24 12:09:27;;;;;;;;;;;15.80;99.90;;;;;;5012396;28;20221;-70
2021/04/24 12:12:01;;;;;;;;;;;15.80;99.90;;;;;;5012676;28;19940;-70
2021/04/24 12:14:30;;;;;;;;;;;15.80;99.90;;;;;;5012634;28;19956;-69
2021/04/24 12:16:57;;;;;;;;;;;15.90;99.90;;;;;;5012222;28;19910;-70
2021/04/24 12:19:28;;;;;;;;;;;15.90;99.90;;;;;;5012392;28;19917;-69
2021/04/24 12:22:00;;;;;;;;;;;15.90;99.90;;;;;;5012415;28;20012;-69
2021/04/24 12:24:27;;;;;;;;;;;16.00;99.90;;;;;;5011469;28;19917;-69
2021/04/24 12:26:54;;;;;;;;;;;16.00;99.90;;;;;;5012220;28;20299;-70
2021/04/24 12:29:39;;;;;;;;;;;16.00;99.90;;;;;;4994741;28;19910;-69
2021/04/24 12:32:13;;;;;;;;;;;16.00;99.90;;;;;;5012269;28;19920;-69
2021/04/24 12:34:40;;;;;;;;;;;16.00;99.90;;;;;;5011895;28;19913;-70
2021/04/24 12:37:09;;;;;;;;;;;16.10;99.90;;;;;;5011687;28;19921;-70
2021/04/24 12:39:36;;;;;;;;;;;16.00;99.90;;;;;;5011882;28;19917;-69
2021/04/24 12:42:04;;;;;;;;;;;16.00;99.90;;;;;;5012149;28;19937;-68
2021/04/24 12:44:31;;;;;;;;;;;16.00;99.90;;;;;;5012022;28;19924;-70
2021/04/24 12:47:01;;;;;;;;;;;15.90;99.90;;;;;;5011160;28;20000;-68
2021/04/24 12:49:28;;;;;;;;;;;15.90;99.90;;;;;;5011472;28;19923;-68
2021/04/24 12:51:59;;;;;;;;;;;15.90;99.90;;;;;;5012064;28;20024;-70
2021/04/24 12:54:25;;;;;;;;;;;15.90;99.90;;;;;;5012600;28;19913;-68
2021/04/24 12:57:08;;;;;;;;;;;15.90;99.90;;;;;;5015899;28;19959;-67
2021/04/24 12:59:35;;;;;;;;;;;15.90;99.90;;;;;;5018765;28;19914;-69
2021/04/24 13:02:02;;;;;;;;;;;15.80;99.90;;;;;;5019234;28;19914;-70
2021/04/24 13:04:29;;;;;;;;;;;15.70;99.90;;;;;;5012308;28;20350;-70
2021/04/24 13:06:58;;;;;;;;;;;15.70;99.90;;;;;;5011575;28;19914;-71
2021/04/24 13:09:35;;;;;;;;;;;15.70;99.90;;;;;;5011520;28;19942;-69
2021/04/24 13:12:09;;;;;;;;;;;15.60;99.90;;;;;;5011551;28;19917;-71
2021/04/24 13:14:47;;;;;;;;;;;15.50;99.90;;;;;;5011209;28;20283;-69
2021/04/24 13:17:18;;;;;;;;;;;15.60;99.90;;;;;;4994276;28;20698;-70
2021/04/24 13:19:53;;;;;;;;;;;15.60;99.90;;;;;;5008677;28;19955;-70
2021/04/24 13:22:36;;;;;;;;;;;15.50;99.90;;;;;;4992038;28;20658;-69
2021/04/24 13:25:05;;;;;;;;;;;15.50;99.90;;;;;;4991425;28;19924;-71
2021/04/24 13:27:31;;;;;;;;;;;15.40;99.90;;;;;;4991729;28;20009;-71
2021/04/24 13:30:00;;;;;;;;;;;15.40;99.90;;;;;;4991892;28;19922;-70
2021/04/24 13:32:27;;;;;;;;;;;15.30;99.90;;;;;;4991657;28;19944;-71
2021/04/24 13:34:55;;;;;;;;;;;15.30;99.90;;;;;;4991934;28;19978;-70
2021/04/24 13:37:29;;;;;;;;;;;15.30;99.90;;;;;;4991916;28;19910;-69
2021/04/24 13:39:59;;;;;;;;;;;15.10;99.90;;;;;;4991139;28;19969;-70
2021/04/24 13:42:27;;;;;;;;;;;15.10;99.90;;;;;;4991056;28;19910;-71
2021/04/24 13:45:14;;;;;;;;;;;15.10;99.90;;;;;;4990747;28;19914;-72
2021/04/24 13:47:47;;;;;;;;;;;15.00;99.90;;;;;;4991888;28;19917;-70
2021/04/24 13:50:17;;;;;;;;;;;15.10;99.90;;;;;;4993171;28;19918;-72
2021/04/24 13:52:43;;;;;;;;;;;15.20;99.90;;;;;;4994187;28;19960;-71
2021/04/24 13:55:10;;;;;;;;;;;15.20;99.90;;;;;;4994022;28;19914;-71
2021/04/24 13:57:38;;;;;;;;;;;15.30;99.90;;;;;;4993212;28;20327;-71
2021/04/24 14:00:06;;;;;;;;;;;15.30;99.90;;;;;;4993972;28;20328;-71
2021/04/24 14:02:33;;;;;;;;;;;15.30;99.90;;;;;;4994173;28;19913;-71
2021/04/24 14:05:00;;;;;;;;;;;15.30;99.90;;;;;;4993734;28;20395;-71
2021/04/24 14:07:26;;;;;;;;;;;15.30;99.80;;;;;;4993999;28;20012;-72
2021/04/24 14:09:53;;;;;;;;;;;15.30;99.90;;;;;;4994496;28;20012;-72
2021/04/24 14:12:20;;;;;;;;;;;15.30;99.90;;;;;;4993911;28;20426;-72
2021/04/24 14:14:46;;;;;;;;;;;15.30;99.80;;;;;;4993811;28;19910;-71
2021/04/24 14:17:13;;;;;;;;;;;15.20;99.80;;;;;;4994272;28;20052;-72
2021/04/24 14:19:40;;;;;;;;;;;15.30;99.90;;;;;;4993633;28;19913;-72
2021/04/24 14:22:10;;;;;;;;;;;15.20;99.90;;;;;;4994459;28;20288;-72
2021/04/24 14:24:37;;;;;;;;;;;15.20;99.70;;;;;;4996209;28;19918;-71
2021/04/24 14:27:08;;;;;;;;;;;15.20;99.70;;;;;;4999122;28;19936;-72